createdAt,value
2022-09-03T00:00:55.093Z,18.45
2022-09-03T00:03:29.210Z,18.45
2022-09-03T00:06:07.666Z,18.46
2022-09-03T00:08:42.823Z,18.44
2022-09-03T00:11:18.804Z,18.45
2022-09-03T00:13:49.049Z,18.48
2022-09-03T00:16:19.442Z,18.47
2022-09-03T00:19:01.721Z,18.44
2022-09-03T00:21:41.579Z,18.44
2022-09-03T00:24:14.226Z,18.46
2022-09-03T00:26:45.561Z,18.44
2022-09-03T00:29:22.189Z,18.47
2022-09-03T00:31:52.645Z,18.45
2022-09-03T00:34:35.027Z,18.48
2022-09-03T00:37:01.660Z,18.49
2022-09-03T00:39:30.399Z,18.48
2022-09-03T00:42:34.656Z,18.48
2022-09-03T00:45:07.291Z,18.50
2022-09-03T00:47:46.258Z,18.47
2022-09-03T00:50:40.664Z,18.49
2022-09-03T00:53:28.594Z,18.50
2022-09-03T00:56:08.638Z,18.50
2022-09-03T00:59:07.385Z,18.49
2022-09-03T01:01:55.532Z,18.46
2022-09-03T01:04:44.776Z,18.48
2022-09-03T01:07:12.211Z,18.50
2022-09-03T01:09:38.778Z,18.49
2022-09-03T01:12:13.477Z,18.48
2022-09-03T01:15:01.635Z,18.51
2022-09-03T01:17:41.896Z,18.49
2022-09-03T01:20:28.750Z,18.50
2022-09-03T01:23:09.451Z,18.50
2022-09-03T01:25:51.635Z,18.45
2022-09-03T01:28:57.066Z,18.45
2022-09-03T01:31:57.893Z,18.45
2022-09-03T01:34:54.305Z,18.45
2022-09-03T01:37:53.429Z,18.43
2022-09-03T01:41:23.429Z,18.46
2022-09-03T01:44:04.190Z,18.46
2022-09-03T01:46:39.551Z,18.45
2022-09-03T01:49:16.001Z,18.45
2022-09-03T01:51:42.903Z,18.46
2022-09-03T01:54:10.877Z,18.48
2022-09-03T01:57:24.254Z,18.47
2022-09-03T02:00:10.757Z,18.48
2022-09-03T02:02:37.489Z,18.44
2022-09-03T02:05:24.155Z,18.42
2022-09-03T02:07:56.890Z,18.40
2022-09-03T02:10:42.326Z,18.39
2022-09-03T02:13:12.486Z,18.38
2022-09-03T02:15:42.731Z,18.42
2022-09-03T02:18:19.988Z,18.40
2022-09-03T02:20:48.068Z,18.42
2022-09-03T02:23:15.931Z,18.45
2022-09-03T02:25:45.910Z,18.43
2022-09-03T02:28:23.233Z,18.45
2022-09-03T02:30:50.487Z,18.46
2022-09-03T02:33:17.182Z,18.45
2022-09-03T02:35:43.975Z,18.48
2022-09-03T02:38:12.847Z,18.44
2022-09-03T02:40:39.699Z,18.44
2022-09-03T02:43:09.270Z,18.43
2022-09-03T02:45:36.603Z,18.45
2022-09-03T02:48:04.089Z,18.44
2022-09-03T02:50:30.798Z,18.45
2022-09-03T02:52:57.462Z,18.44
2022-09-03T02:55:24.109Z,18.45
2022-09-03T02:57:50.732Z,18.47
2022-09-03T03:00:17.992Z,18.46
2022-09-03T03:02:44.737Z,18.45
2022-09-03T03:05:18.236Z,18.47
2022-09-03T03:07:44.823Z,18.47
2022-09-03T03:10:12.619Z,18.43
2022-09-03T03:12:40.103Z,18.39
2022-09-03T03:15:07.152Z,18.38
2022-09-03T03:17:33.758Z,18.40
2022-09-03T03:20:00.414Z,18.38
2022-09-03T03:22:27.009Z,18.36
2022-09-03T03:24:55.411Z,18.36
2022-09-03T03:27:22.561Z,18.36
2022-09-03T03:29:49.195Z,18.37
2022-09-03T03:32:15.797Z,18.36
2022-09-03T03:34:42.425Z,18.36
2022-09-03T03:37:09.121Z,18.37
2022-09-03T03:39:35.915Z,18.38
2022-09-03T03:42:02.743Z,18.33
2022-09-03T03:44:29.773Z,18.32
2022-09-03T03:46:56.408Z,18.36
2022-09-03T03:49:23.068Z,18.31
2022-09-03T03:51:49.715Z,18.32
2022-09-03T03:54:17.559Z,18.27
2022-09-03T03:56:44.525Z,18.29
2022-09-03T03:59:17.483Z,18.28
2022-09-03T04:01:44.244Z,18.33
2022-09-03T04:04:10.910Z,18.30
2022-09-03T04:06:37.563Z,18.27
2022-09-03T04:09:04.162Z,18.27
2022-09-03T04:11:30.850Z,18.26
2022-09-03T04:13:57.598Z,18.22
2022-09-03T04:16:26.273Z,18.23
2022-09-03T04:18:57.123Z,18.26
2022-09-03T04:21:28.671Z,18.27
2022-09-03T04:23:56.243Z,18.26
2022-09-03T04:26:33.442Z,18.25
2022-09-03T04:29:02.314Z,18.23
2022-09-03T04:31:29.270Z,18.26
2022-09-03T04:33:56.642Z,18.23
2022-09-03T04:36:25.069Z,18.22
2022-09-03T04:38:54.176Z,18.19
2022-09-03T04:41:25.737Z,18.19
2022-09-03T04:43:56.920Z,18.18
2022-09-03T04:46:26.821Z,18.18
2022-09-03T04:48:55.031Z,18.16
2022-09-03T04:51:24.295Z,18.16
2022-09-03T04:54:00.180Z,18.18
2022-09-03T04:56:31.895Z,18.16
2022-09-03T04:59:07.202Z,18.15
2022-09-03T05:01:36.380Z,18.13
2022-09-03T05:04:03.389Z,18.07
2022-09-03T05:06:31.628Z,18.05
2022-09-03T05:08:58.969Z,18.03
2022-09-03T05:11:26.816Z,18.07
2022-09-03T05:13:55.643Z,18.10
2022-09-03T05:16:23.766Z,18.07
2022-09-03T05:18:55.212Z,18.06
2022-09-03T05:21:22.535Z,18.03
2022-09-03T05:23:50.851Z,18.04
2022-09-03T05:26:25.988Z,18.07
2022-09-03T05:28:57.943Z,18.11
2022-09-03T05:31:26.766Z,18.11
2022-09-03T05:33:58.617Z,18.12
2022-09-03T05:36:27.811Z,18.13
2022-09-03T05:38:54.838Z,18.10
2022-09-03T05:41:22.152Z,18.04
2022-09-03T05:43:55.274Z,18.11
2022-09-03T05:46:26.736Z,18.11
2022-09-03T05:48:53.600Z,18.12
2022-09-03T05:51:20.272Z,18.07
2022-09-03T05:53:49.133Z,18.12
2022-09-03T05:56:18.148Z,18.11
2022-09-03T05:58:51.220Z,18.12
2022-09-03T06:01:37.492Z,18.10
2022-09-03T06:04:12.402Z,18.13
2022-09-03T06:06:41.366Z,18.12
2022-09-03T06:09:13.653Z,18.12
2022-09-03T06:11:42.732Z,18.09
2022-09-03T06:14:11.879Z,18.09
2022-09-03T06:16:43.716Z,18.08
2022-09-03T06:19:11.177Z,18.09
2022-09-03T06:21:42.847Z,18.06
2022-09-03T06:24:17.689Z,18.04
2022-09-03T06:26:45.095Z,18.06
2022-09-03T06:29:12.496Z,18.04
2022-09-03T06:31:39.911Z,18.04
2022-09-03T06:34:06.697Z,18.02
2022-09-03T06:36:33.490Z,18.02
2022-09-03T06:39:00.211Z,18.08
2022-09-03T06:41:29.279Z,18.06
2022-09-03T06:44:06.213Z,18.11
2022-09-03T06:46:35.387Z,18.14
2022-09-03T06:49:02.294Z,18.14
2022-09-03T06:51:30.808Z,18.12
2022-09-03T06:54:02.950Z,18.09
2022-09-03T06:56:38.845Z,18.08
2022-09-03T06:59:11.649Z,18.09
2022-09-03T07:01:43.649Z,18.09
2022-09-03T07:04:11.753Z,18.11
2022-09-03T07:06:40.311Z,18.15
2022-09-03T07:09:07.606Z,18.14
2022-09-03T07:11:36.025Z,18.13
2022-09-03T07:14:04.556Z,18.09
2022-09-03T07:16:34.363Z,18.10
2022-09-03T07:19:01.293Z,18.12
2022-09-03T07:21:29.691Z,18.14
2022-09-03T07:23:57.472Z,18.15
2022-09-03T07:26:31.981Z,18.14
2022-09-03T07:29:00.746Z,18.18
2022-09-03T07:31:29.555Z,18.21
2022-09-03T07:33:57.108Z,18.20
2022-09-03T07:36:25.563Z,18.21
2022-09-03T07:38:55.441Z,18.23
2022-09-03T07:41:28.542Z,18.22
2022-09-03T07:43:57.158Z,18.22
2022-09-03T07:46:25.540Z,18.24
2022-09-03T07:48:57.127Z,18.24
2022-09-03T07:51:26.642Z,18.25
2022-09-03T07:53:58.520Z,18.27
2022-09-03T07:56:27.021Z,18.28
2022-09-03T07:58:55.510Z,18.33
2022-09-03T08:01:23.545Z,18.34
2022-09-03T08:03:52.901Z,18.36
2022-09-03T08:06:21.925Z,18.35
2022-09-03T08:08:49.090Z,18.34
2022-09-03T08:11:17.686Z,18.37
2022-09-03T08:13:54.772Z,18.35
2022-09-03T08:16:21.457Z,18.34
2022-09-03T08:18:51.193Z,18.35
2022-09-03T08:21:19.484Z,18.37
2022-09-03T08:23:47.915Z,18.38
2022-09-03T08:26:16.513Z,18.35
2022-09-03T08:28:43.815Z,18.36
2022-09-03T08:31:16.208Z,18.37
2022-09-03T08:33:45.388Z,18.40
2022-09-03T08:36:14.430Z,18.41
2022-09-03T08:38:43.589Z,18.42
2022-09-03T08:41:31.378Z,18.43
2022-09-03T08:44:16.794Z,18.43
2022-09-03T08:47:01.861Z,18.46
2022-09-03T08:49:50.725Z,18.47
2022-09-03T08:52:28.938Z,18.52
2022-09-03T08:55:04.054Z,18.54
2022-09-03T08:57:33.438Z,18.64
2022-09-03T09:00:01.086Z,18.77
2022-09-03T09:02:43.828Z,18.78
2022-09-03T09:05:19.458Z,18.79
2022-09-03T09:07:57.932Z,18.86
2022-09-03T09:10:30.817Z,18.95
2022-09-03T09:13:30.525Z,18.97
2022-09-03T09:16:12.235Z,19.00
2022-09-03T09:19:13.682Z,19.09
2022-09-03T09:21:47.501Z,19.13
2022-09-03T09:24:23.179Z,19.14
2022-09-03T09:26:52.371Z,19.19
2022-09-03T09:29:18.990Z,19.22
2022-09-03T09:31:45.691Z,19.23
2022-09-03T09:34:12.313Z,19.28
2022-09-03T09:36:59.162Z,19.26
2022-09-03T09:39:25.851Z,19.26
2022-09-03T09:42:11.034Z,19.28
2022-09-03T09:44:42.657Z,19.31
2022-09-03T09:47:18.015Z,19.34
2022-09-03T09:49:54.916Z,19.34
2022-09-03T09:52:25.693Z,19.35
2022-09-03T09:54:54.807Z,19.35
2022-09-03T09:57:25.554Z,19.30
2022-09-03T10:00:11.187Z,19.38
2022-09-03T10:02:40.466Z,19.41
2022-09-03T10:05:16.110Z,19.45
2022-09-03T10:07:42.825Z,19.47
2022-09-03T10:10:21.326Z,19.50
2022-09-03T10:12:59.335Z,19.53
2022-09-03T10:15:46.526Z,19.49
2022-09-03T10:18:45.110Z,19.42
2022-09-03T10:21:12.971Z,19.39
2022-09-03T10:23:50.222Z,19.40
2022-09-03T10:26:29.295Z,19.52
2022-09-03T10:29:05.764Z,19.50
2022-09-03T10:31:55.226Z,19.53
2022-09-03T10:35:00.034Z,19.53
2022-09-03T10:37:41.097Z,19.48
2022-09-03T10:40:13.775Z,19.49
2022-09-03T10:42:52.718Z,19.53
2022-09-03T10:45:41.117Z,19.55
2022-09-03T10:48:16.656Z,19.56
2022-09-03T10:50:49.804Z,19.61
2022-09-03T10:53:37.859Z,19.60
2022-09-03T10:56:17.813Z,19.54
2022-09-03T10:58:59.474Z,19.52
2022-09-03T11:01:38.081Z,19.58
2022-09-03T11:04:15.189Z,19.59
2022-09-03T11:06:57.544Z,19.59
2022-09-03T11:09:25.725Z,19.58
2022-09-03T11:12:01.803Z,19.66
2022-09-03T11:14:34.593Z,19.62
2022-09-03T11:17:06.192Z,19.57
2022-09-03T11:20:14.318Z,19.49
2022-09-03T11:22:42.338Z,19.48
2022-09-03T11:25:12.993Z,19.55
2022-09-03T11:27:42.597Z,19.61
2022-09-03T11:30:14.184Z,19.64
2022-09-03T11:32:43.281Z,19.60
2022-09-03T11:35:26.185Z,19.57
2022-09-03T11:38:09.004Z,19.52
2022-09-03T11:40:37.896Z,19.52
2022-09-03T11:43:13.774Z,19.48
2022-09-03T11:45:40.801Z,19.48
2022-09-03T11:48:30.805Z,19.45
2022-09-03T11:50:57.449Z,19.49
2022-09-03T11:53:25.443Z,19.47
2022-09-03T11:55:59.775Z,19.46
2022-09-03T11:58:32.925Z,19.44
2022-09-03T12:01:01.496Z,19.44
2022-09-03T12:03:44.094Z,19.44
2022-09-03T12:06:15.296Z,19.46
2022-09-03T12:09:06.374Z,19.48
2022-09-03T12:12:01.105Z,19.55
2022-09-03T12:14:36.493Z,19.66
2022-09-03T12:17:18.791Z,19.72
2022-09-03T12:19:55.209Z,19.76
2022-09-03T12:22:25.377Z,19.80
2022-09-03T12:24:52.346Z,19.85
2022-09-03T12:27:24.909Z,19.85
2022-09-03T12:30:02.373Z,19.81
2022-09-03T12:32:37.236Z,19.86
2022-09-03T12:38:10.530Z,19.83
2022-09-03T12:43:38.370Z,19.80
2022-09-03T12:46:13.904Z,19.91
2022-09-03T12:49:29.227Z,20.06
2022-09-03T12:51:52.477Z,20.11
2022-09-03T12:54:20.765Z,20.20
2022-09-03T12:56:56.690Z,20.30
2022-09-03T12:59:24.349Z,20.33
2022-09-03T13:01:54.371Z,20.20
2022-09-03T13:04:28.152Z,20.10
2022-09-03T13:07:21.078Z,19.96
2022-09-03T13:09:48.633Z,19.86
2022-09-03T13:12:24.461Z,19.80
2022-09-03T13:14:52.715Z,19.95
2022-09-03T13:17:47.392Z,19.92
2022-09-03T13:20:19.880Z,19.82
2022-09-03T13:22:49.434Z,19.79
2022-09-03T13:25:41.889Z,19.79
2022-09-03T13:28:28.724Z,19.75
2022-09-03T13:30:58.223Z,19.74
2022-09-03T13:33:48.356Z,19.77
2022-09-03T13:36:21.880Z,19.77
2022-09-03T13:39:06.079Z,19.80
2022-09-03T13:41:46.305Z,20.03
2022-09-03T13:44:24.753Z,19.95
2022-09-03T13:46:52.473Z,19.94
2022-09-03T13:49:43.276Z,19.85
2022-09-03T13:52:20.337Z,19.88
2022-09-03T13:54:52.583Z,19.96
2022-09-03T13:57:31.588Z,19.90
2022-09-03T14:00:09.533Z,19.86
2022-09-03T14:03:05.298Z,19.87
2022-09-03T14:05:55.196Z,19.83
2022-09-03T14:08:59.888Z,19.82
2022-09-03T14:11:50.163Z,19.75
2022-09-03T14:14:24.179Z,19.75
2022-09-03T14:16:58.239Z,19.85
2022-09-03T14:19:43.102Z,19.91
2022-09-03T14:22:48.314Z,19.95
2022-09-03T14:25:20.655Z,19.97
2022-09-03T14:27:47.522Z,19.91
2022-09-03T14:30:16.849Z,19.96
2022-09-03T14:32:46.515Z,20.14
2022-09-03T14:35:28.157Z,20.26
2022-09-03T14:38:19.069Z,20.32
2022-09-03T14:40:52.686Z,20.35
2022-09-03T14:43:34.494Z,20.34
2022-09-03T14:46:06.195Z,20.30
2022-09-03T14:49:04.548Z,20.20
2022-09-03T14:51:34.133Z,20.07
2022-09-03T14:54:23.718Z,19.98
2022-09-03T14:56:56.284Z,19.95
2022-09-03T14:59:38.178Z,19.91
2022-09-03T15:02:34.599Z,19.84
2022-09-03T15:05:12.140Z,19.85
2022-09-03T15:07:57.572Z,19.83
2022-09-03T15:10:46.347Z,19.83
2022-09-03T15:13:35.278Z,19.85
2022-09-03T15:16:01.932Z,19.91
2022-09-03T15:18:40.943Z,19.85
2022-09-03T15:21:35.374Z,19.84
2022-09-03T15:24:23.630Z,19.85
2022-09-03T15:27:27.178Z,19.89
2022-09-03T15:29:59.743Z,19.91
2022-09-03T15:32:35.545Z,19.92
2022-09-03T15:35:33.626Z,19.98
2022-09-03T15:38:24.948Z,20.04
2022-09-03T15:40:55.353Z,20.07
2022-09-03T15:43:27.476Z,20.05
2022-09-03T15:45:59.876Z,20.03
2022-09-03T15:48:47.839Z,19.97
2022-09-03T15:51:25.076Z,19.92
2022-09-03T15:54:03.525Z,19.90
2022-09-03T15:56:48.176Z,19.85
2022-09-03T15:59:29.989Z,19.85
2022-09-03T16:02:04.294Z,19.85
2022-09-03T16:04:52.602Z,19.84
2022-09-03T16:07:28.189Z,19.84
2022-09-03T16:10:23.279Z,19.81
2022-09-03T16:13:23.173Z,19.81
2022-09-03T16:16:05.924Z,19.77
2022-09-03T16:18:40.182Z,19.79
2022-09-03T16:21:25.986Z,19.79
2022-09-03T16:24:02.801Z,19.77
2022-09-03T16:26:35.317Z,19.75
2022-09-03T16:29:16.323Z,19.76
2022-09-03T16:32:04.924Z,19.74
2022-09-03T16:34:51.994Z,19.76
2022-09-03T16:37:43.961Z,19.75
2022-09-03T16:40:35.022Z,19.75
2022-09-03T16:43:40.679Z,19.73
2022-09-03T16:46:35.587Z,19.73
2022-09-03T16:49:05.003Z,19.73
2022-09-03T16:51:41.094Z,19.75
2022-09-03T16:54:41.033Z,19.73
2022-09-03T16:57:35.887Z,19.73
2022-09-03T17:00:12.476Z,19.75
2022-09-03T17:03:26.154Z,19.75
2022-09-03T17:06:14.214Z,19.73
2022-09-03T17:08:52.676Z,19.75
2022-09-03T17:11:32.463Z,19.75
2022-09-03T17:14:02.763Z,19.73
2022-09-03T17:16:47.430Z,19.74
2022-09-03T17:19:14.051Z,19.74
2022-09-03T17:22:10.105Z,19.75
2022-09-03T17:24:59.034Z,19.74
2022-09-03T17:27:29.725Z,19.73
2022-09-03T17:30:05.304Z,19.73
2022-09-03T17:32:32.095Z,19.71
2022-09-03T17:35:26.964Z,19.71
2022-09-03T17:37:53.479Z,19.70
2022-09-03T17:40:30.629Z,19.69
2022-09-03T17:43:05.154Z,19.69
2022-09-03T17:45:48.031Z,19.69
2022-09-03T17:48:23.653Z,19.68
2022-09-03T17:50:56.356Z,19.69
2022-09-03T17:53:27.179Z,19.67
2022-09-03T17:56:03.198Z,19.69
2022-09-03T17:58:37.311Z,19.68
2022-09-03T18:01:13.142Z,19.69
2022-09-03T18:03:46.023Z,19.68
2022-09-03T18:06:36.039Z,19.68
2022-09-03T18:09:12.707Z,19.65
2022-09-03T18:11:41.917Z,19.65
2022-09-03T18:14:26.537Z,19.64
2022-09-03T18:17:00.268Z,19.63
2022-09-03T18:20:09.291Z,19.62
2022-09-03T18:23:03.837Z,19.62
2022-09-03T18:25:51.182Z,19.63
2022-09-03T18:28:37.809Z,19.60
2022-09-03T18:31:22.945Z,19.62
2022-09-03T18:34:07.993Z,19.61
2022-09-03T18:36:53.423Z,19.61
2022-09-03T18:39:46.546Z,19.61
2022-09-03T18:42:42.961Z,19.60
2022-09-03T18:46:17.608Z,19.60
2022-09-03T18:49:15.561Z,19.60
2022-09-03T18:52:18.968Z,19.60
2022-09-03T18:55:34.472Z,19.59
2022-09-03T18:58:25.646Z,19.58
2022-09-03T19:01:40.578Z,19.55
2022-09-03T19:05:04.713Z,19.55
2022-09-03T19:08:27.516Z,19.55
2022-09-03T19:11:25.682Z,19.52
2022-09-03T19:14:10.977Z,19.53
2022-09-03T19:17:25.543Z,19.52
2022-09-03T19:20:13.557Z,19.51
2022-09-03T19:23:00.603Z,19.52
2022-09-03T19:25:47.874Z,19.50
2022-09-03T19:28:42.927Z,19.50
2022-09-03T19:31:52.195Z,19.48
2022-09-03T19:35:00.023Z,19.49
2022-09-03T19:37:53.973Z,19.50
2022-09-03T19:41:13.943Z,19.49
2022-09-03T19:44:24.365Z,19.48
2022-09-03T19:47:13.265Z,19.49
2022-09-03T19:50:20.290Z,19.49
2022-09-03T19:53:18.392Z,19.48
2022-09-03T19:56:16.246Z,19.47
2022-09-03T19:59:13.918Z,19.46
2022-09-03T20:01:59.257Z,19.46
2022-09-03T20:04:53.726Z,19.45
2022-09-03T20:07:39.680Z,19.44
2022-09-03T20:10:22.771Z,19.43
2022-09-03T20:12:54.393Z,19.43
2022-09-03T20:15:23.525Z,19.43
2022-09-03T20:17:56.309Z,19.44
2022-09-03T20:20:41.635Z,19.43
2022-09-03T20:23:30.836Z,19.45
2022-09-03T20:26:25.329Z,19.43
2022-09-03T20:29:03.943Z,19.44
2022-09-03T20:31:42.607Z,19.43
2022-09-03T20:34:18.030Z,19.42
2022-09-03T20:37:11.845Z,19.42
2022-09-03T20:39:57.816Z,19.41
2022-09-03T20:42:27.186Z,19.41
2022-09-03T20:45:08.360Z,19.40
2022-09-03T20:47:41.208Z,19.40
2022-09-03T20:50:43.144Z,19.39
2022-09-03T20:53:34.273Z,19.38
2022-09-03T20:56:10.579Z,19.41
2022-09-03T20:58:49.078Z,19.38
2022-09-03T21:01:39.217Z,19.39
2022-09-03T21:04:21.841Z,19.39
2022-09-03T21:07:20.950Z,19.38
2022-09-03T21:10:14.973Z,19.37
2022-09-03T21:12:59.850Z,19.35
2022-09-03T21:15:36.598Z,19.36
2022-09-03T21:18:39.253Z,19.36
2022-09-03T21:21:21.834Z,19.36
2022-09-03T21:24:12.278Z,19.35
2022-09-03T21:26:45.977Z,19.33
2022-09-03T21:29:34.164Z,19.34
2022-09-03T21:32:23.954Z,19.35
2022-09-03T21:35:08.801Z,19.33
2022-09-03T21:37:38.059Z,19.31
2022-09-03T21:40:08.157Z,19.30
2022-09-03T21:42:52.647Z,19.31
2022-09-03T21:45:34.606Z,19.30
2022-09-03T21:48:12.301Z,19.29
2022-09-03T21:50:56.878Z,19.30
2022-09-03T21:53:44.677Z,19.27
2022-09-03T21:56:42.193Z,19.27
2022-09-03T21:59:19.755Z,19.25
2022-09-03T22:01:58.172Z,19.25
2022-09-03T22:04:27.956Z,19.26
2022-09-03T22:07:16.295Z,19.27
2022-09-03T22:09:51.767Z,19.25
2022-09-03T22:12:22.159Z,19.27
2022-09-03T22:14:52.102Z,19.26
2022-09-03T22:17:31.027Z,19.27
2022-09-03T22:19:57.777Z,19.27
2022-09-03T22:22:31.657Z,19.27
2022-09-03T22:25:09.201Z,19.27
2022-09-03T22:27:46.728Z,19.27
2022-09-03T22:30:20.251Z,19.23
2022-09-03T22:33:21.112Z,19.22
2022-09-03T22:36:04.228Z,19.22
2022-09-03T22:38:46.016Z,19.22
2022-09-03T22:41:25.909Z,19.22
2022-09-03T22:44:03.319Z,19.22
2022-09-03T22:46:44.023Z,19.21
2022-09-03T22:49:29.007Z,19.21
2022-09-03T22:52:26.369Z,19.20
2022-09-03T22:55:15.731Z,19.19
2022-09-03T22:58:08.635Z,19.20
2022-09-03T23:00:41.418Z,19.16
2022-09-03T23:03:16.849Z,19.16
2022-09-03T23:05:57.910Z,19.17
2022-09-03T23:08:29.250Z,19.17
2022-09-03T23:11:04.586Z,19.15
2022-09-03T23:13:46.995Z,19.13
2022-09-03T23:16:30.335Z,19.11
2022-09-03T23:18:59.668Z,19.11
2022-09-03T23:21:27.549Z,19.10
2022-09-03T23:24:03.172Z,19.08
2022-09-03T23:26:39.355Z,19.10
2022-09-03T23:29:29.169Z,19.11
2022-09-03T23:31:59.384Z,19.09
2022-09-03T23:34:27.170Z,19.08
2022-09-03T23:37:32.602Z,19.09
2022-09-03T23:40:27.945Z,19.06
2022-09-03T23:43:16.041Z,19.05
2022-09-03T23:46:03.920Z,19.05
2022-09-03T23:49:06.909Z,19.02
2022-09-03T23:51:33.473Z,19.03
2022-09-03T23:54:17.365Z,19.01
2022-09-03T23:57:07.136Z,19.02
2022-09-03T23:59:56.356Z,19.00
